2017 Course12 km

Traduction

French Afrikaans Albanian Arabic Armenian Azerbaijani Basque Belarusian Bulgarian Catalan Chinese (Simplified) Chinese (Traditional) Croatian Czech Danish Dutch English Estonian Filipino Finnish Galician Georgian German Greek Haitian Creole Hebrew Hindi Hungarian Icelandic Indonesian Irish Italian Japanese Korean Latvian Lithuanian Macedonian Malay Maltese Norwegian Persian Polish Portuguese Romanian Russian Serbian Slovak Slovenian Spanish Swahili Swedish Thai Turkish Ukrainian Urdu Vietnamese Welsh Yiddish

abeilles

Jeu: Pyramide

Jeu: Grenouille


Afficher par
      scratchDossardclt_catsysTempsNomPrénomClt Catlog
151 151 n°079 V1M_43 01:10:29 LECLERC Olivier 43 V1M
152 152 n°037 SEF_09 01:10:37 RANNOU Klervi 9 SEF
153 153 n°153 V1M_44 01:10:39 DEWEZ Olivier 44 V1M
154 154 n°090 SEF_10 01:10:39 BOYER Marlène 10 SEF
155 155 n°112 SEF_11 01:10:40 LONGERE Melodie 11 SEF
156 156 n°263 V1M_45 01:10:40 VALLA Sebastien 45 V1M
157 157 n°204 V1M_46 01:10:41 FABRE Denis 46 V1M
158 158 n°012 V4M_02 01:10:42 TRZECINSKI Karol 2 V4M
159 159 n°077 SEF_12 01:10:42 DESCOMBE Laure 12 SEF
160 160 n°146 V1F_05 01:10:44 CHARTIER Sandrine 5 V1F
161 161 n°066 V1F_06 01:10:45 MOREL Caroline 6 V1F
162 162 n°098 SEF_13 01:11:07 VILLI? Léa 13 SEF
163 163 n°089 SEM_59 01:11:13 GIUNTA Charles 59 SEM
164 164 n°175 V1M_47 01:11:19 PRÉBET Patrick 47 V1M
165 165 n°055 V1F_07 01:11:28 ARNAUD Isabelle 7 V1F
166 166 n°174 V2M_23 01:11:41 POINAS Poinas 23 V2M
167 167 n°176 V2M_24 01:11:49 QUINTO Santiago 24 V2M
168 168 n°183 SEM_60 01:12:03 SILVESTRE Martin 60 SEM
169 169 n°073 SEM_61 01:12:08 MELARIN Hugo 61 SEM
170 170 n°084 V2M_25 01:12:09 PATURAL Hugues 25 V2M
171 171 n°087 V3M_08 01:12:14 TEIXEIRA Gilles 8 V3M
172 172 n°168 SEF_14 01:12:35 MORDAC Emeline 14 SEF
173 173 n°022 SEM_62 01:12:37 PELLETIER Maxime 62 SEM
174 174 n°209 SEM_63 01:12:51 EYRAUD Clement 63 SEM
175 175 n°148 SEF_15 01:13:05 CHERBEIX Sophie 15 SEF
176 176 n°156 V2F_04 01:13:09 DURY Monique 4 V2F
177 177 n°268 V2M_26 01:13:11 PETIOT Jean paul 26 V2M
178 178 n°046 SEM_64 01:13:13 NAYME Pascal 64 SEM
179 179 n°211 V1M_48 01:13:22 BOURGET Benoit 48 V1M
180 180 n°230 V2F_05 01:13:38 GUILLAUMOND Sandrine 5 V2F
181 181 n°171 V1F_08 01:13:40 PELLETIER Marie laure 8 V1F
182 182 n°205 V1F_09 01:13:41 DELAINE Myriam 9 V1F
183 183 n°222 V2M_27 01:13:43 CHAPOTIER Christophe 27 V2M
184 184 n°187 SEF_16 01:14:09 VALETTE Marine 16 SEF
185 185 n°162 V3M_09 01:14:10 GUILLOT Christian 9 V3M
186 186 n°064 V3M_10 01:14:12 CHARVOLIN Jean paul 10 V3M
187 187 n°099 V1M_49 01:14:12 VACCA Frédéric 49 V1M
188 188 n°024 SEM_65 01:14:18 CHAPUIS Gwenael 65 SEM
189 189 n°190 SEF_17 01:14:37 VINCENT Marjolaine 17 SEF
190 190 n°008 V3M_11 01:14:48 ZUSSY Jean-luc 11 V3M
191 191 n°200 V1F_10 01:14:53 PEPIN Valérie 10 V1F
192 192 n°267 V2F_06 01:14:54 PETIOT Joelle 6 V2F
193 193 n°113 SEF_18 01:15:13 GONON Julie 18 SEF
194 194 n°121 SEM_66 01:15:22 BOULON Sylvain 66 SEM
195 195 n°198 SEF_19 01:15:28 TISSOT Delphine 19 SEF
196 196 n°009 V1M_50 01:15:36 GRIMOUD Stéphane 50 V1M
197 197 n°052 SEF_20 01:15:40 VERNAY Nathalie 20 SEF
198 198 n°085 V2F_07 01:15:57 TEIXEIRA Betty 7 V2F
199 199 n°239 V3M_12 01:15:58 RIVET Roland 12 V3M
200 200 n°231 V2F_08 01:16:16 ROMEYER Martine 8 V2F
Liste_csv by Sysinfomac    Page 4 sur 6
Copyright © 2018 La Tour en Jarez - Tous droits réservés
Joomla! est un Logiciel Libre diffusé sous licence GNU General Public
Original Solarflare design by Rhuk lunarized by Joomlashack modified by Sysinfomac

Galeries Photos

This slideshow requires Adobe Flash Player 10.0 (or higher). JavaScript must be enabled.



Météo


Array ( [0] => stdClass Object ( [filename] => comite.jpg [urlclick] => comite-jpg [pubparams] =>

url_click="http://coinche-stephanoise.com" |

[monrep] => publicite ) ) |/publicite/comite.jpg|
/web/sysinfomac/www/|http://sysinfomac.fr/publicite/comite.jpg|
quel click